createdAt,value
2019-01-08T00:00:39.872Z,998.6
2019-01-08T00:01:41.997Z,998.5
2019-01-08T00:02:44.453Z,998.4
2019-01-08T00:03:46.604Z,998.5
2019-01-08T00:04:48.750Z,998.4
2019-01-08T00:05:50.903Z,998.4
2019-01-08T00:06:53.129Z,998.4
2019-01-08T00:07:55.239Z,998.4
2019-01-08T00:08:57.648Z,998.4
2019-01-08T00:09:59.789Z,998.4
2019-01-08T00:11:02.135Z,998.3
2019-01-08T00:12:04.258Z,998.3
2019-01-08T00:13:06.395Z,998.3
2019-01-08T00:14:08.522Z,998.2
2019-01-08T00:15:10.659Z,998.2
2019-01-08T00:16:12.784Z,998.2
2019-01-08T00:17:15.221Z,998.3
2019-01-08T00:18:17.445Z,998.2
2019-01-08T00:19:19.566Z,998.2
2019-01-08T00:20:21.870Z,998.2
2019-01-08T00:21:24.083Z,998.2
2019-01-08T00:22:26.218Z,998.2
2019-01-08T00:23:28.356Z,998.1
2019-01-08T00:24:30.781Z,998.1
2019-01-08T00:25:32.909Z,998
2019-01-08T00:26:35.044Z,998.1
2019-01-08T00:27:37.175Z,998.1
2019-01-08T00:28:43.636Z,998.1
2019-01-08T00:29:45.771Z,998.1
2019-01-08T00:30:47.891Z,998.1
2019-01-08T00:31:50.321Z,998.1
2019-01-08T00:32:52.472Z,998
2019-01-08T00:33:54.724Z,998
2019-01-08T00:34:56.876Z,998
2019-01-08T00:35:59.010Z,998
2019-01-08T00:37:01.697Z,997.9
2019-01-08T00:38:03.839Z,998
2019-01-08T00:39:06.090Z,997.8
2019-01-08T00:40:08.228Z,997.9
2019-01-08T00:41:10.357Z,997.9
2019-01-08T00:42:12.483Z,998
2019-01-08T00:43:14.630Z,997.9
2019-01-08T00:44:16.762Z,997.9
2019-01-08T00:45:18.890Z,997.9
2019-01-08T00:46:21.051Z,997.8
2019-01-08T00:47:23.467Z,997.8
2019-01-08T00:48:25.612Z,997.8
2019-01-08T00:49:27.747Z,997.8
2019-01-08T00:50:29.894Z,997.8
2019-01-08T00:51:32.321Z,997.8
2019-01-08T00:52:34.559Z,997.8
2019-01-08T00:53:36.706Z,997.8
2019-01-08T00:54:38.825Z,997.7
2019-01-08T00:55:41.007Z,997.7
2019-01-08T00:56:43.151Z,997.7
2019-01-08T00:57:45.276Z,997.7
2019-01-08T00:58:51.965Z,997.6
2019-01-08T00:59:54.393Z,997.5
2019-01-08T01:00:56.512Z,997.5
2019-01-08T01:01:58.659Z,997.5
2019-01-08T01:03:00.812Z,997.5
2019-01-08T01:04:02.956Z,997.4
2019-01-08T01:05:05.078Z,997.4
2019-01-08T01:06:07.209Z,997.5
2019-01-08T01:07:09.334Z,997.5
2019-01-08T01:08:11.460Z,997.5
2019-01-08T01:09:13.883Z,997.5
2019-01-08T01:10:16.022Z,997.5
2019-01-08T01:11:18.161Z,997.5
2019-01-08T01:12:20.283Z,997.5
2019-01-08T01:13:22.422Z,997.4
2019-01-08T01:14:24.578Z,997.4
2019-01-08T01:15:26.719Z,997.4
2019-01-08T01:16:28.921Z,997.3
2019-01-08T01:17:31.046Z,997.2
2019-01-08T01:18:33.464Z,997.2
2019-01-08T01:19:36.000Z,997.2
2019-01-08T01:20:38.142Z,997.2
2019-01-08T01:21:40.263Z,997
2019-01-08T01:22:42.470Z,997.1
2019-01-08T01:23:44.598Z,997.1
2019-01-08T01:24:46.757Z,996.9
2019-01-08T01:25:49.174Z,997
2019-01-08T01:26:51.296Z,997
2019-01-08T01:27:54.195Z,996.9
2019-01-08T01:29:00.616Z,996.9
2019-01-08T01:30:02.789Z,996.8
2019-01-08T01:31:04.903Z,996.8
2019-01-08T01:32:07.026Z,996.9
2019-01-08T01:33:09.536Z,996.9
2019-01-08T01:34:11.665Z,996.8
2019-01-08T01:35:13.807Z,996.8
2019-01-08T01:36:15.924Z,996.8
2019-01-08T01:37:18.139Z,996.8
2019-01-08T01:38:20.282Z,996.8
2019-01-08T01:39:22.521Z,996.8
2019-01-08T01:40:24.655Z,996.7
2019-01-08T01:41:26.790Z,996.8
2019-01-08T01:42:29.322Z,996.7
2019-01-08T01:43:31.719Z,996.7
2019-01-08T01:44:34.147Z,996.7
2019-01-08T01:45:36.290Z,996.6
2019-01-08T01:46:38.731Z,996.6
2019-01-08T01:47:40.873Z,996.7
2019-01-08T01:48:43.014Z,996.6
2019-01-08T01:49:45.156Z,996.5
2019-01-08T01:50:47.591Z,996.5
2019-01-08T01:51:49.751Z,996.5
2019-01-08T01:52:51.950Z,996.5
2019-01-08T01:53:54.079Z,996.4
2019-01-08T01:54:56.519Z,996.4
2019-01-08T01:55:58.654Z,996.4
2019-01-08T01:57:00.782Z,996.3
2019-01-08T01:58:03.490Z,996.3
2019-01-08T01:59:08.929Z,996.3
2019-01-08T02:00:11.081Z,996.2
2019-01-08T02:01:13.245Z,996.1
2019-01-08T02:02:15.378Z,996.1
2019-01-08T02:03:17.514Z,996
2019-01-08T02:04:20.032Z,996
2019-01-08T02:05:22.563Z,996
2019-01-08T02:06:24.968Z,996
2019-01-08T02:07:27.095Z,996
2019-01-08T02:08:29.232Z,996
2019-01-08T02:09:31.745Z,995.9
2019-01-08T02:10:33.894Z,996
2019-01-08T02:11:36.005Z,995.9
2019-01-08T02:12:38.204Z,995.9
2019-01-08T02:13:40.337Z,995.9
2019-01-08T02:14:42.492Z,995.8
2019-01-08T02:15:44.648Z,995.8
2019-01-08T02:16:46.805Z,995.8
2019-01-08T02:17:49.020Z,995.8
2019-01-08T02:18:51.172Z,995.8
2019-01-08T02:19:53.309Z,995.7
2019-01-08T02:20:55.528Z,995.7
2019-01-08T02:21:57.643Z,995.7
2019-01-08T02:22:59.788Z,995.7
2019-01-08T02:24:01.943Z,995.6
2019-01-08T02:25:04.083Z,995.5
2019-01-08T02:26:06.228Z,995.6
2019-01-08T02:27:08.365Z,995.5
2019-01-08T02:28:10.546Z,995.5
2019-01-08T02:29:16.926Z,995.6
2019-01-08T02:30:19.050Z,995.5
2019-01-08T02:31:21.511Z,995.5
2019-01-08T02:32:24.060Z,995.4
2019-01-08T02:33:26.199Z,995.5
2019-01-08T02:34:28.633Z,995.4
2019-01-08T02:35:30.753Z,995.4
2019-01-08T02:36:33.295Z,995.3
2019-01-08T02:37:35.788Z,995.3
2019-01-08T02:38:37.924Z,995.3
2019-01-08T02:39:40.058Z,995.4
2019-01-08T02:40:42.220Z,995.3
2019-01-08T02:41:44.616Z,995.3
2019-01-08T02:42:47.245Z,995.2
2019-01-08T02:43:49.419Z,995.2
2019-01-08T02:44:51.548Z,995.2
2019-01-08T02:45:54.266Z,995.2
2019-01-08T02:46:56.548Z,995.1
2019-01-08T02:47:59.094Z,995.1
2019-01-08T02:49:01.221Z,995.1
2019-01-08T02:50:03.544Z,995
2019-01-08T02:51:05.715Z,995
2019-01-08T02:52:07.882Z,994.9
2019-01-08T02:53:10.599Z,994.9
2019-01-08T02:54:12.801Z,994.9
2019-01-08T02:55:15.096Z,994.8
2019-01-08T02:56:17.222Z,994.8
2019-01-08T02:57:19.345Z,994.8
2019-01-08T02:58:22.155Z,994.8
2019-01-08T02:59:25.614Z,994.8
2019-01-08T03:00:27.746Z,994.8
2019-01-08T03:01:29.906Z,994.6
2019-01-08T03:02:32.348Z,994.6
2019-01-08T03:03:34.573Z,994.5
2019-01-08T03:04:37.014Z,994.5
2019-01-08T03:05:39.439Z,994.5
2019-01-08T03:06:41.574Z,994.4
2019-01-08T03:07:43.698Z,994.3
2019-01-08T03:08:45.833Z,994.4
2019-01-08T03:09:47.990Z,994.3
2019-01-08T03:10:50.131Z,994.2
2019-01-08T03:11:52.545Z,994.2
2019-01-08T03:12:54.716Z,994.2
2019-01-08T03:13:56.855Z,994.1
2019-01-08T03:14:58.990Z,994.1
2019-01-08T03:16:01.333Z,994.1
2019-01-08T03:17:03.474Z,994.1
2019-01-08T03:18:06.012Z,993.9
2019-01-08T03:19:08.147Z,993.9
2019-01-08T03:20:10.268Z,993.9
2019-01-08T03:21:12.401Z,993.8
2019-01-08T03:22:14.536Z,993.8
2019-01-08T03:23:16.681Z,993.8
2019-01-08T03:24:18.829Z,993.7
2019-01-08T03:25:20.953Z,993.7
2019-01-08T03:26:23.099Z,993.7
2019-01-08T03:27:25.245Z,993.7
2019-01-08T03:28:27.402Z,993.7
2019-01-08T03:29:34.026Z,993.5
2019-01-08T03:30:36.177Z,993.6
2019-01-08T03:31:38.342Z,993.5
2019-01-08T03:32:40.884Z,993.5
2019-01-08T03:33:43.025Z,993.4
2019-01-08T03:34:45.150Z,993.3
2019-01-08T03:35:47.297Z,993.4
2019-01-08T03:36:50.111Z,993.4
2019-01-08T03:37:52.621Z,993.4
2019-01-08T03:38:54.752Z,993.4
2019-01-08T03:39:57.287Z,993.4
2019-01-08T03:40:59.423Z,993.3
2019-01-08T03:42:01.946Z,993.3
2019-01-08T03:43:04.399Z,993.3
2019-01-08T03:44:06.523Z,993.2
2019-01-08T03:45:08.673Z,993.2
2019-01-08T03:46:11.076Z,993.3
2019-01-08T03:47:13.208Z,993.3
2019-01-08T03:48:15.324Z,993.1
2019-01-08T03:49:17.463Z,993.1
2019-01-08T03:50:19.674Z,993.2
2019-01-08T03:51:21.811Z,993
2019-01-08T03:52:23.931Z,993
2019-01-08T03:53:26.067Z,993
2019-01-08T03:54:28.270Z,993
2019-01-08T03:55:30.393Z,993.1
2019-01-08T03:56:32.523Z,993
2019-01-08T03:57:34.985Z,993
2019-01-08T03:58:37.120Z,993
2019-01-08T03:59:42.431Z,992.9
2019-01-08T04:00:44.580Z,992.9
2019-01-08T04:01:46.825Z,992.9
2019-01-08T04:02:49.258Z,992.8
2019-01-08T04:03:51.456Z,992.8
2019-01-08T04:04:53.585Z,992.8
2019-01-08T04:05:55.700Z,992.6
2019-01-08T04:06:57.838Z,992.7
2019-01-08T04:08:00.000Z,992.8
2019-01-08T04:09:02.228Z,992.7
2019-01-08T04:10:04.365Z,992.6
2019-01-08T04:11:06.497Z,992.6
2019-01-08T04:12:08.629Z,992.5
2019-01-08T04:13:10.770Z,992.4
2019-01-08T04:14:12.905Z,992.5
2019-01-08T04:15:15.033Z,992.5
2019-01-08T04:16:17.463Z,992.5
2019-01-08T04:17:19.593Z,992.5
2019-01-08T04:18:21.725Z,992.3
2019-01-08T04:19:24.155Z,992.3
2019-01-08T04:20:26.398Z,992.3
2019-01-08T04:21:28.513Z,992.3
2019-01-08T04:22:30.935Z,992.2
2019-01-08T04:23:33.072Z,992.2
2019-01-08T04:24:35.230Z,992.2
2019-01-08T04:25:37.691Z,992.2
2019-01-08T04:26:40.123Z,992.2
2019-01-08T04:27:42.252Z,992.1
2019-01-08T04:28:44.684Z,992.1
2019-01-08T04:29:50.928Z,992
2019-01-08T04:30:53.060Z,992.1
2019-01-08T04:31:55.199Z,992
2019-01-08T04:32:57.312Z,992
2019-01-08T04:33:59.442Z,991.9
2019-01-08T04:35:01.874Z,991.9
2019-01-08T04:36:04.059Z,992
2019-01-08T04:37:06.204Z,991.9
2019-01-08T04:38:08.331Z,991.8
2019-01-08T04:39:10.457Z,991.8
2019-01-08T04:40:12.589Z,991.8
2019-01-08T04:41:15.009Z,991.8
2019-01-08T04:42:17.145Z,991.7
2019-01-08T04:43:19.271Z,991.6
2019-01-08T04:44:21.419Z,991.6
2019-01-08T04:45:23.571Z,991.6
2019-01-08T04:46:26.012Z,991.5
2019-01-08T04:47:28.144Z,991.5
2019-01-08T04:48:30.573Z,991.5
2019-01-08T04:49:32.738Z,991.6
2019-01-08T04:50:35.153Z,991.4
2019-01-08T04:51:37.299Z,991.5
2019-01-08T04:52:39.447Z,991.4
2019-01-08T04:53:41.901Z,991.4
2019-01-08T04:54:44.032Z,991.4
2019-01-08T04:55:46.179Z,991.3
2019-01-08T04:56:48.330Z,991.3
2019-01-08T04:57:50.559Z,991.3
2019-01-08T04:58:53.082Z,991.2
2019-01-08T04:59:59.382Z,991.2
2019-01-08T05:01:01.526Z,991.1
2019-01-08T05:02:03.702Z,991.1
2019-01-08T05:03:05.839Z,991.1
2019-01-08T05:04:07.981Z,991.2
2019-01-08T05:05:10.137Z,991.2
2019-01-08T05:06:12.280Z,990.9
2019-01-08T05:07:15.004Z,991.1
2019-01-08T05:08:17.153Z,990.9
2019-01-08T05:09:19.299Z,991.1
2019-01-08T05:10:21.447Z,990.9
2019-01-08T05:11:23.589Z,990.8
2019-01-08T05:12:25.724Z,990.8
2019-01-08T05:13:27.847Z,990.8
2019-01-08T05:14:29.965Z,990.8
2019-01-08T05:15:32.502Z,990.7
2019-01-08T05:16:34.921Z,990.7
2019-01-08T05:17:37.049Z,990.7
2019-01-08T05:18:39.189Z,990.7
2019-01-08T05:19:41.336Z,990.6
2019-01-08T05:20:43.458Z,990.6
2019-01-08T05:21:45.581Z,990.5
2019-01-08T05:22:47.745Z,990.5
2019-01-08T05:23:49.880Z,990.4
2019-01-08T05:24:52.019Z,990.4
2019-01-08T05:25:54.824Z,990.3
2019-01-08T05:26:56.961Z,990.3
2019-01-08T05:27:59.113Z,990.2
2019-01-08T05:29:01.556Z,990.2
2019-01-08T05:30:08.512Z,990.3
2019-01-08T05:31:10.754Z,990.1
2019-01-08T05:32:13.179Z,990.2
2019-01-08T05:33:15.306Z,990.1
2019-01-08T05:34:17.429Z,990.1
2019-01-08T05:35:19.567Z,990
2019-01-08T05:36:21.703Z,990
2019-01-08T05:37:24.145Z,990.1
2019-01-08T05:38:26.283Z,990
2019-01-08T05:39:28.428Z,990.1
2019-01-08T05:40:30.655Z,989.9
2019-01-08T05:41:32.809Z,989.9
2019-01-08T05:42:34.950Z,989.8
2019-01-08T05:43:37.088Z,989.9
2019-01-08T05:44:39.228Z,989.7
2019-01-08T05:45:41.356Z,989.7
2019-01-08T05:46:43.770Z,989.7
2019-01-08T05:47:45.896Z,989.7
2019-01-08T05:48:48.044Z,989.6
2019-01-08T05:49:50.175Z,989.6
2019-01-08T05:50:52.290Z,989.4
2019-01-08T05:51:54.450Z,989.6
2019-01-08T05:52:56.877Z,989.6
2019-01-08T05:53:59.030Z,989.4
2019-01-08T05:55:01.150Z,989.5
2019-01-08T05:56:03.671Z,989.5
2019-01-08T05:57:05.811Z,989.5
2019-01-08T05:58:08.008Z,989.3
2019-01-08T05:59:10.414Z,989.4
2019-01-08T06:00:16.894Z,989.3
2019-01-08T06:01:19.099Z,989.4
2019-01-08T06:02:21.236Z,989.3
2019-01-08T06:03:23.392Z,989.3
2019-01-08T06:04:25.816Z,989.2
2019-01-08T06:05:27.957Z,989.2
2019-01-08T06:06:30.069Z,989.2
2019-01-08T06:07:32.492Z,989.2
2019-01-08T06:08:35.001Z,989.2
2019-01-08T06:09:37.131Z,989.1
2019-01-08T06:10:39.276Z,989
2019-01-08T06:11:41.411Z,989.1
2019-01-08T06:12:43.555Z,989
2019-01-08T06:13:45.680Z,989
2019-01-08T06:14:47.815Z,989
2019-01-08T06:15:49.936Z,989.1
2019-01-08T06:16:52.062Z,989
2019-01-08T06:17:54.195Z,989
2019-01-08T06:18:56.338Z,988.9
2019-01-08T06:19:58.479Z,988.9
2019-01-08T06:21:00.585Z,988.9
2019-01-08T06:22:02.725Z,988.8
2019-01-08T06:23:04.875Z,988.8
2019-01-08T06:24:07.553Z,988.8
2019-01-08T06:25:09.680Z,988.7
2019-01-08T06:26:12.100Z,988.7
2019-01-08T06:27:14.240Z,988.8
2019-01-08T06:28:16.373Z,988.7
2019-01-08T06:29:18.529Z,988.6
2019-01-08T06:30:25.120Z,988.6
2019-01-08T06:31:27.257Z,988.5
2019-01-08T06:32:29.395Z,988.5
2019-01-08T06:33:31.531Z,988.6
2019-01-08T06:34:33.654Z,988.5
2019-01-08T06:35:35.779Z,988.5
2019-01-08T06:36:37.921Z,988.3
2019-01-08T06:37:40.048Z,988.4
2019-01-08T06:38:42.166Z,988.5
2019-01-08T06:39:44.303Z,988.4
2019-01-08T06:40:46.702Z,988.4
2019-01-08T06:41:48.830Z,988.4
2019-01-08T06:42:51.043Z,988.2
2019-01-08T06:43:53.174Z,988.3
2019-01-08T06:44:55.317Z,988.2
2019-01-08T06:45:57.444Z,988.1
2019-01-08T06:46:59.561Z,988.2
2019-01-08T06:48:02.006Z,988.3
2019-01-08T06:49:04.135Z,988.2
2019-01-08T06:50:06.275Z,988.2
2019-01-08T06:51:08.424Z,988.1
2019-01-08T06:52:10.560Z,988.3
2019-01-08T06:53:12.691Z,988
2019-01-08T06:54:14.812Z,988.1
2019-01-08T06:55:16.935Z,988.1
2019-01-08T06:56:19.328Z,988
2019-01-08T06:57:21.448Z,987.8
2019-01-08T06:58:23.590Z,988.1
2019-01-08T06:59:25.721Z,988.1
2019-01-08T07:00:33.924Z,988
2019-01-08T07:01:36.047Z,988
2019-01-08T07:02:39.018Z,988
2019-01-08T07:03:41.160Z,987.9
2019-01-08T07:04:43.293Z,987.8
2019-01-08T07:05:45.493Z,987.9
2019-01-08T07:06:47.624Z,987.9
2019-01-08T07:07:50.058Z,987.8
2019-01-08T07:08:52.177Z,987.8
2019-01-08T07:09:54.314Z,987.8
2019-01-08T07:10:56.439Z,987.8
2019-01-08T07:11:58.859Z,987.8
2019-01-08T07:13:00.990Z,987.8
2019-01-08T07:14:03.538Z,987.7
2019-01-08T07:15:05.980Z,987.7
2019-01-08T07:16:08.118Z,987.7
2019-01-08T07:17:10.255Z,987.6
2019-01-08T07:18:12.406Z,987.5
2019-01-08T07:19:14.514Z,987.5
2019-01-08T07:20:16.637Z,987.4
2019-01-08T07:21:18.776Z,987.4
2019-01-08T07:22:20.918Z,987.5
2019-01-08T07:23:23.062Z,987.4
2019-01-08T07:24:25.208Z,987.3
2019-01-08T07:25:27.325Z,987.4
2019-01-08T07:26:29.470Z,987.4
2019-01-08T07:27:31.593Z,987.3
2019-01-08T07:28:33.723Z,987.3
2019-01-08T07:29:35.830Z,987.3
2019-01-08T07:30:42.101Z,987.2
2019-01-08T07:31:44.520Z,987.3
2019-01-08T07:32:46.959Z,987.3
2019-01-08T07:33:49.371Z,987.2
2019-01-08T07:34:51.590Z,987.3
2019-01-08T07:35:53.729Z,987.2
2019-01-08T07:36:55.876Z,987.2
2019-01-08T07:37:58.115Z,987.1
2019-01-08T07:39:00.275Z,987.2
2019-01-08T07:40:02.470Z,987.2
2019-01-08T07:41:04.608Z,987
2019-01-08T07:42:06.724Z,987
2019-01-08T07:43:08.859Z,987
2019-01-08T07:44:11.010Z,987
2019-01-08T07:45:13.171Z,986.9
2019-01-08T07:46:15.316Z,986.9
2019-01-08T07:47:17.455Z,987
2019-01-08T07:48:19.589Z,986.9
2019-01-08T07:49:21.733Z,986.8
2019-01-08T07:50:23.862Z,986.9
2019-01-08T07:51:25.992Z,986.7
2019-01-08T07:52:28.148Z,986.6
2019-01-08T07:53:30.338Z,986.8
2019-01-08T07:54:32.462Z,986.8
2019-01-08T07:55:37.011Z,986.8
2019-01-08T07:56:39.147Z,986.9
2019-01-08T07:57:41.291Z,986.5
2019-01-08T07:58:43.448Z,986.7
2019-01-08T07:59:45.575Z,986.6
2019-01-08T08:00:50.436Z,986.7
2019-01-08T08:01:52.591Z,986.6
2019-01-08T08:02:54.727Z,986.6
2019-01-08T08:03:57.552Z,986.6
2019-01-08T08:04:59.966Z,986.6
2019-01-08T08:06:02.137Z,986.5
2019-01-08T08:07:04.371Z,986.7
2019-01-08T08:08:06.502Z,986.5
2019-01-08T08:09:08.635Z,986.5
2019-01-08T08:10:10.779Z,986.5
2019-01-08T08:11:12.936Z,986.5
2019-01-08T08:12:15.450Z,986.4
2019-01-08T08:13:17.666Z,986.4
2019-01-08T08:14:19.803Z,986.6
2019-01-08T08:15:21.945Z,986.5
2019-01-08T08:16:24.787Z,986.3
2019-01-08T08:17:26.917Z,986.4
2019-01-08T08:18:29.051Z,986.4
2019-01-08T08:19:31.186Z,986.3
2019-01-08T08:20:33.614Z,986.3
2019-01-08T08:21:36.043Z,986.2
2019-01-08T08:22:38.201Z,986.3
2019-01-08T08:23:40.328Z,986.2
2019-01-08T08:24:42.477Z,986.2
2019-01-08T08:25:45.018Z,986.4
2019-01-08T08:26:47.453Z,986.2
2019-01-08T08:27:49.603Z,986.3
2019-01-08T08:28:51.750Z,986.3
2019-01-08T08:29:53.882Z,986.2
2019-01-08T08:30:59.593Z,986.2
2019-01-08T08:32:02.021Z,986.1
2019-01-08T08:33:04.250Z,986.2
2019-01-08T08:34:06.403Z,986.2
2019-01-08T08:35:09.137Z,986.1
2019-01-08T08:36:11.954Z,986
2019-01-08T08:37:14.109Z,986.2
2019-01-08T08:38:16.236Z,986.1
2019-01-08T08:39:18.362Z,986.1
2019-01-08T08:40:20.485Z,986.1
2019-01-08T08:41:22.684Z,986.2
2019-01-08T08:42:24.821Z,986
2019-01-08T08:43:26.958Z,986.2
2019-01-08T08:44:29.075Z,986
2019-01-08T08:45:31.225Z,986
2019-01-08T08:46:33.369Z,986
2019-01-08T08:47:35.525Z,986
2019-01-08T08:48:37.681Z,986
2019-01-08T08:49:39.899Z,986
2019-01-08T08:50:42.386Z,985.9
2019-01-08T08:51:44.550Z,986
2019-01-08T08:52:46.706Z,986.2
2019-01-08T08:53:53.103Z,986.2
2019-01-08T08:54:55.278Z,986
2019-01-08T08:55:57.430Z,986
2019-01-08T08:56:59.560Z,986.1
2019-01-08T08:58:01.697Z,986.2
2019-01-08T08:59:03.828Z,986.1
2019-01-08T09:00:05.985Z,986.1
2019-01-08T09:01:08.135Z,986.1
2019-01-08T09:02:10.300Z,986
2019-01-08T09:03:12.449Z,986
2019-01-08T09:04:14.592Z,986.1
2019-01-08T09:05:16.722Z,986.1
2019-01-08T09:06:18.891Z,986
2019-01-08T09:07:21.022Z,986.1
2019-01-08T09:08:23.172Z,986.1
2019-01-08T09:09:25.678Z,986
2019-01-08T09:10:27.893Z,986.1
2019-01-08T09:11:30.309Z,986.1
2019-01-08T09:12:32.427Z,986.1
2019-01-08T09:13:34.991Z,986.2
2019-01-08T09:14:40.461Z,986.2
2019-01-08T09:15:42.597Z,986.3
2019-01-08T09:16:44.731Z,986.2
2019-01-08T09:17:46.872Z,986.2
2019-01-08T09:18:48.994Z,986.2
2019-01-08T09:19:51.149Z,986.2
2019-01-08T09:20:53.334Z,986.2
2019-01-08T09:21:55.617Z,986.1
2019-01-08T09:22:57.766Z,986.2
2019-01-08T09:23:59.891Z,986.2
2019-01-08T09:25:02.099Z,986.1
2019-01-08T09:26:05.998Z,986.2
2019-01-08T09:27:12.299Z,986.2
2019-01-08T09:28:20.515Z,986.3
2019-01-08T09:29:27.180Z,986.3
2019-01-08T09:30:36.328Z,986.2
2019-01-08T09:31:43.527Z,986.2
2019-01-08T09:32:49.007Z,986.2
2019-01-08T09:33:56.618Z,986.3
2019-01-08T09:35:04.186Z,986.4
2019-01-08T09:36:13.057Z,986.3
2019-01-08T09:37:20.514Z,986.4
2019-01-08T09:38:29.298Z,986.3
2019-01-08T09:39:38.089Z,986.4
2019-01-08T09:40:46.801Z,986.4
2019-01-08T09:41:54.430Z,986.5
2019-01-08T09:43:02.285Z,986.5
2019-01-08T09:44:11.331Z,986.5
2019-01-08T09:45:18.924Z,986.5
2019-01-08T09:46:27.777Z,986.5
2019-01-08T09:47:37.223Z,986.6
2019-01-08T09:48:49.058Z,986.6
2019-01-08T09:49:57.015Z,986.6
2019-01-08T09:51:05.446Z,986.7
2019-01-08T09:52:14.035Z,986.6
2019-01-08T09:53:22.252Z,986.6
2019-01-08T09:54:24.406Z,986.6
2019-01-08T09:55:26.564Z,986.7
2019-01-08T09:56:28.783Z,986.7
2019-01-08T09:57:31.038Z,986.8
2019-01-08T09:58:33.236Z,986.7
2019-01-08T09:59:35.909Z,986.7
2019-01-08T10:00:38.061Z,986.6
2019-01-08T10:01:40.196Z,986.5
2019-01-08T10:02:42.619Z,986.7
2019-01-08T10:03:44.758Z,986.7
2019-01-08T10:04:47.281Z,986.7
2019-01-08T10:05:49.431Z,986.8
2019-01-08T10:06:51.595Z,986.7
2019-01-08T10:07:54.402Z,986.8
2019-01-08T10:08:56.558Z,986.8
2019-01-08T10:09:58.743Z,986.8
2019-01-08T10:11:01.176Z,986.8
2019-01-08T10:12:03.693Z,986.8
2019-01-08T10:13:05.817Z,986.8
2019-01-08T10:14:08.243Z,986.8
2019-01-08T10:15:10.957Z,986.8
2019-01-08T10:16:13.172Z,986.8
2019-01-08T10:17:15.683Z,986.8
2019-01-08T10:18:17.996Z,987
2019-01-08T10:19:20.509Z,986.9
2019-01-08T10:20:23.071Z,986.9
2019-01-08T10:21:26.054Z,987
2019-01-08T10:22:28.613Z,987
2019-01-08T10:23:30.744Z,987.1
2019-01-08T10:24:32.889Z,987.1
2019-01-08T10:25:35.036Z,987.1
2019-01-08T10:26:37.172Z,987.1
2019-01-08T10:27:39.321Z,987
2019-01-08T10:28:41.871Z,987.2
2019-01-08T10:29:44.343Z,987.1
2019-01-08T10:30:46.474Z,987.2
2019-01-08T10:31:48.721Z,987.1
2019-01-08T10:32:50.885Z,987.2
2019-01-08T10:33:53.043Z,987.2
2019-01-08T10:34:55.199Z,987.2
2019-01-08T10:35:57.346Z,987.1
2019-01-08T10:36:59.462Z,987.1
2019-01-08T10:38:01.684Z,987.2
2019-01-08T10:39:03.813Z,987
2019-01-08T10:40:06.226Z,987.3
2019-01-08T10:41:08.381Z,987.2
2019-01-08T10:42:10.535Z,987.3
2019-01-08T10:43:13.366Z,987.1
2019-01-08T10:44:15.527Z,987.3
2019-01-08T10:45:17.652Z,987.3
2019-01-08T10:46:20.292Z,987.3
2019-01-08T10:47:22.437Z,987.3
2019-01-08T10:48:24.902Z,987.3
2019-01-08T10:49:27.035Z,987.3
2019-01-08T10:50:29.334Z,987.3
2019-01-08T10:51:31.479Z,987.2
2019-01-08T10:52:33.976Z,987.3
2019-01-08T10:53:36.722Z,987.4
2019-01-08T10:54:39.368Z,987.3
2019-01-08T10:55:41.933Z,987.3
2019-01-08T10:56:44.247Z,987.2
2019-01-08T10:57:46.674Z,987.2
2019-01-08T10:58:49.397Z,987.3
2019-01-08T10:59:51.639Z,987.4
2019-01-08T11:00:54.849Z,987.4
2019-01-08T11:01:57.393Z,987.4
2019-01-08T11:02:59.874Z,987.4
2019-01-08T11:04:02.259Z,987.3
2019-01-08T11:05:04.696Z,987.3
2019-01-08T11:06:06.958Z,987.4
2019-01-08T11:07:09.559Z,987.4
2019-01-08T11:08:12.177Z,987.5
2019-01-08T11:09:15.474Z,987.5
2019-01-08T11:10:17.872Z,987.5
2019-01-08T11:11:21.017Z,987.5
2019-01-08T11:12:23.238Z,987.5
2019-01-08T11:13:25.803Z,987.6
2019-01-08T11:14:28.485Z,987.5
2019-01-08T11:15:30.632Z,987.5
2019-01-08T11:16:32.777Z,987.5
2019-01-08T11:17:35.185Z,987.5
2019-01-08T11:18:37.333Z,987.5
2019-01-08T11:19:39.480Z,987.5
2019-01-08T11:20:41.610Z,987.5
2019-01-08T11:21:43.746Z,987.5
2019-01-08T11:22:45.959Z,987.6
2019-01-08T11:23:48.142Z,987.5
2019-01-08T11:24:50.261Z,987.6
2019-01-08T11:25:52.379Z,987.6
2019-01-08T11:26:54.520Z,987.6
2019-01-08T11:27:56.929Z,987.5
2019-01-08T11:28:59.141Z,987.6
2019-01-08T11:30:01.295Z,987.6
2019-01-08T11:31:03.466Z,987.6
2019-01-08T11:32:05.999Z,987.6
2019-01-08T11:33:08.183Z,987.7
2019-01-08T11:34:10.632Z,987.8
2019-01-08T11:35:13.060Z,987.7
2019-01-08T11:36:15.477Z,987.7
2019-01-08T11:37:17.698Z,987.6
2019-01-08T11:38:19.838Z,987.6
2019-01-08T11:39:22.295Z,987.7
2019-01-08T11:40:24.792Z,987.8
2019-01-08T11:41:27.312Z,987.7
2019-01-08T11:42:29.472Z,987.8
2019-01-08T11:43:31.591Z,987.7
2019-01-08T11:44:33.955Z,987.7
2019-01-08T11:45:36.317Z,987.7
2019-01-08T11:46:38.885Z,987.7
2019-01-08T11:47:41.130Z,987.6
2019-01-08T11:48:43.836Z,987.8
2019-01-08T11:49:46.926Z,987.8
2019-01-08T11:50:49.681Z,987.7
2019-01-08T11:51:52.175Z,987.7
2019-01-08T11:52:54.413Z,987.7
2019-01-08T11:53:56.570Z,987.8
2019-01-08T11:54:58.766Z,987.8
2019-01-08T11:56:00.926Z,987.8
2019-01-08T11:57:03.055Z,987.8
2019-01-08T11:58:05.296Z,987.9
2019-01-08T11:59:08.052Z,987.8
2019-01-08T12:00:10.507Z,987.9
2019-01-08T12:01:12.719Z,987.9
2019-01-08T12:02:15.584Z,987.9
2019-01-08T12:03:18.091Z,987.9
2019-01-08T12:04:21.126Z,987.9
2019-01-08T12:05:23.985Z,987.9
2019-01-08T12:06:28.073Z,988
2019-01-08T12:07:31.748Z,987.9
2019-01-08T12:08:34.031Z,988
2019-01-08T12:09:36.516Z,988
2019-01-08T12:10:38.761Z,987.9
2019-01-08T12:11:41.041Z,987.9
2019-01-08T12:12:43.609Z,987.8
2019-01-08T12:13:45.767Z,988.1
2019-01-08T12:14:47.959Z,988
2019-01-08T12:15:50.269Z,988
2019-01-08T12:16:52.462Z,988.1
2019-01-08T12:17:54.676Z,988
2019-01-08T12:18:57.106Z,988
2019-01-08T12:20:00.526Z,988
2019-01-08T12:21:03.472Z,987.9
2019-01-08T12:22:06.355Z,987.9
2019-01-08T12:23:09.096Z,987.9
2019-01-08T12:24:11.239Z,988
2019-01-08T12:25:13.401Z,988
2019-01-08T12:26:15.539Z,988
2019-01-08T12:27:17.708Z,988
2019-01-08T12:28:19.857Z,987.9
2019-01-08T12:29:22.072Z,987.9
2019-01-08T12:30:24.216Z,987.9
2019-01-08T12:31:26.398Z,988
2019-01-08T12:32:28.575Z,988
2019-01-08T12:33:30.724Z,988
2019-01-08T12:34:32.879Z,987.9
2019-01-08T12:35:34.999Z,987.9
2019-01-08T12:36:37.432Z,988
2019-01-08T12:37:39.580Z,988
2019-01-08T12:38:43.793Z,988
2019-01-08T12:39:45.944Z,988
2019-01-08T12:40:48.404Z,988
2019-01-08T12:41:50.529Z,988
2019-01-08T12:42:52.690Z,987.9
2019-01-08T12:43:56.012Z,987.9
2019-01-08T12:44:58.442Z,988
2019-01-08T12:46:00.966Z,988
2019-01-08T12:47:03.132Z,988
2019-01-08T12:48:05.298Z,988
2019-01-08T12:49:07.462Z,988
2019-01-08T12:50:09.599Z,987.9
2019-01-08T12:51:11.765Z,988
2019-01-08T12:52:13.920Z,987.9
2019-01-08T12:53:16.063Z,987.9
2019-01-08T12:54:18.227Z,988
2019-01-08T12:55:20.381Z,988
2019-01-08T12:56:22.576Z,988
2019-01-08T12:57:24.737Z,988
2019-01-08T12:58:26.892Z,988
2019-01-08T12:59:29.020Z,988
2019-01-08T13:00:31.150Z,988
2019-01-08T13:01:33.320Z,988
2019-01-08T13:02:35.477Z,988
2019-01-08T13:03:37.639Z,988
2019-01-08T13:04:39.774Z,988.1
2019-01-08T13:05:41.902Z,988
2019-01-08T13:06:44.145Z,988.1
2019-01-08T13:07:46.306Z,988
2019-01-08T13:08:48.476Z,988.1
2019-01-08T13:09:50.621Z,988.1
2019-01-08T13:10:52.793Z,988.1
2019-01-08T13:11:55.249Z,988.1
2019-01-08T13:12:57.415Z,988.2
2019-01-08T13:13:59.953Z,988.1
2019-01-08T13:15:02.078Z,988.1
2019-01-08T13:16:04.217Z,988.1
2019-01-08T13:17:11.960Z,988
2019-01-08T13:18:14.411Z,988.2
2019-01-08T13:19:16.644Z,988.1
2019-01-08T13:20:18.809Z,988.2
2019-01-08T13:21:21.322Z,988.1
2019-01-08T13:22:23.468Z,988.1
2019-01-08T13:23:25.619Z,988.1
2019-01-08T13:24:27.778Z,988.2
2019-01-08T13:25:29.936Z,988.2
2019-01-08T13:26:32.088Z,988.2
2019-01-08T13:27:34.250Z,988.1
2019-01-08T13:28:36.666Z,988.2
2019-01-08T13:29:38.814Z,988.2
2019-01-08T13:30:40.948Z,988.2
2019-01-08T13:31:43.080Z,988.2
2019-01-08T13:32:45.244Z,988.2